Thomaston, GA

10:29 AM EDT on June 26, 2017 (GMT -0400)
Thomaston-Upson County

Weather History for KOPN - December, 2012

Change the Weather History Date:

Thursday, December 6, 2012

  Actual Average (KFFC) Record (KFFC)
Temperature  
Mean Temperature 56 °F -  
Max Temperature 62 °F 55 °F 76 °F (2013)
Min Temperature 51 °F 33 °F 21 °F (2000)
Degree Days  
Heating Degree Days 8    
Growing Degree Days 6 (Base 50)    
Moisture  
Dew Point 54 °F    
Average Humidity 87    
Maximum Humidity 100    
Minimum Humidity 72    
Precipitation  
Precipitation 0.00 in - - ()
Sea Level Pressure  
Sea Level Pressure 30.13 in    
Wind  
Wind Speed 6 mph (ENE)    
Max Wind Speed 10 mph    
Max Gust Speed 17 mph    
Visibility 9 miles    
Events      
Averages and records for this station are not official NWS values.
T = Trace of Precipitation, MM = Missing Value Source: NWS Daily Summary

Daily Weather History Graph

Daily Weather History Graph

Search for Another Location

Airport or City:

Trip Planner

Search our weather history database for the weather conditions in past years. The results will help you decide how hot, cold, wet, or windy it might be!

Date:

Astronomy

Dec. 06, 2012 Rise Set
Actual Time 7:26 AM EST 5:30 PM EST
Civil Twilight 6:59 AM EST 5:57 PM EST
Nautical Twilight 6:28 AM EST 6:28 PM EST
Astronomical Twilight 5:58 AM EST 6:58 PM EST
Moon 12:02 AM EST (12/6) 12:36 PM EST (12/6)
Length of Visible Light 10h 58m
Length of Day
10h 03m
Waning Gibbous, 49% of the Moon is Illuminated
Dec 6
Waning Gibbous
Dec 13
New
Dec 20
First Quarter
Dec 28
Full
Jan 4
Last Quarter

Hourly Weather History & Observations

Time (EST) Temp. Dew Point Humidity Pressure Visibility Wind Dir Wind Speed Gust Speed Precip Events Conditions
12:15 AM 57.2 °F 55.4 °F 94% 30.14 in 10.0 mi NE 3.5 mph - N/A   Clear
12:35 AM 55.4 °F 55.4 °F 100% 30.14 in 10.0 mi NE 4.6 mph - N/A   Clear
12:55 AM 55.4 °F 55.4 °F 100% 30.13 in 10.0 mi ENE 3.5 mph - N/A   Clear
1:15 AM 51.8 °F 51.8 °F 100% 30.12 in 10.0 mi ENE 3.5 mph - N/A   Scattered Clouds
1:35 AM 57.2 °F 55.4 °F 94% 30.12 in 10.0 mi NE 5.8 mph - N/A   Scattered Clouds
1:55 AM 55.4 °F 55.4 °F 100% 30.13 in 10.0 mi NE 5.8 mph - N/A   Mostly Cloudy
2:15 AM 55.4 °F 55.4 °F 100% 30.13 in 10.0 mi NE 5.8 mph - N/A   Overcast
2:35 AM 55.4 °F 55.4 °F 100% 30.13 in 10.0 mi NE 5.8 mph - N/A   Overcast
2:55 AM 55.4 °F 55.4 °F 100% 30.13 in 10.0 mi NE 4.6 mph - N/A   Overcast
3:15 AM 55.4 °F 55.4 °F 100% 30.13 in 10.0 mi Calm Calm - N/A   Overcast
3:35 AM 55.4 °F 55.4 °F 100% 30.13 in 10.0 mi East 4.6 mph - N/A   Overcast
3:55 AM 59.0 °F 57.2 °F 94% 30.12 in 10.0 mi East 5.8 mph - N/A   Overcast
4:15 AM 59.0 °F 57.2 °F 94% 30.12 in 10.0 mi ENE 4.6 mph - N/A   Overcast
4:35 AM 59.0 °F 57.2 °F 94% 30.12 in 10.0 mi East 4.6 mph - N/A   Overcast
4:55 AM 57.2 °F 55.4 °F 94% 30.12 in 10.0 mi NE 3.5 mph - N/A   Overcast
8:35 AM 55.4 °F 55.4 °F 100% 30.16 in 2.5 mi East 8.1 mph 17.3 mph N/A   Overcast
8:55 AM 55.4 °F 55.4 °F 100% 30.16 in 3.0 mi East 6.9 mph - N/A   Overcast
9:15 AM 57.2 °F 57.2 °F 100% 30.16 in 4.0 mi East 8.1 mph - N/A   Overcast
9:35 AM 57.2 °F 57.2 °F 100% 30.17 in 5.0 mi ESE 9.2 mph - N/A   Overcast
9:55 AM 59.0 °F 57.2 °F 94% 30.17 in 5.0 mi East 8.1 mph - N/A   Overcast
10:15 AM 59.0 °F 57.2 °F 94% 30.18 in 5.0 mi ENE 6.9 mph - N/A   Overcast
10:35 AM 59.0 °F 57.2 °F 94% 30.17 in 7.0 mi ENE 6.9 mph - N/A   Overcast
10:55 AM 60.8 °F 59.0 °F 94% 30.17 in 10.0 mi East 9.2 mph - N/A   Overcast
11:15 AM 60.8 °F 59.0 °F 94% 30.16 in 10.0 mi East 8.1 mph - N/A   Overcast
11:35 AM 60.8 °F 59.0 °F 94% 30.16 in 10.0 mi ENE 5.8 mph - N/A   Overcast
11:55 AM 60.8 °F 57.2 °F 88% 30.16 in 10.0 mi East 8.1 mph - N/A   Overcast
12:15 PM 60.8 °F 55.4 °F 82% 30.15 in 10.0 mi East 9.2 mph - N/A   Overcast
12:35 PM 60.8 °F 55.4 °F 82% 30.14 in 10.0 mi East 8.1 mph - N/A   Overcast
12:55 PM 60.8 °F 55.4 °F 82% 30.14 in 10.0 mi East 8.1 mph - N/A   Overcast
1:15 PM 62.6 °F 55.4 °F 77% 30.13 in 10.0 mi East 5.8 mph - N/A   Overcast
1:35 PM 62.6 °F 55.4 °F 77% 30.12 in 10.0 mi East 5.8 mph - N/A   Overcast
1:55 PM 62.6 °F 55.4 °F 77% 30.11 in 10.0 mi East 4.6 mph - N/A   Overcast
2:15 PM 62.6 °F 55.4 °F 77% 30.11 in 10.0 mi ENE 6.9 mph - N/A   Overcast
2:35 PM 62.6 °F 55.4 °F 77% 30.11 in 10.0 mi ESE 8.1 mph - N/A   Overcast
2:55 PM 62.6 °F 55.4 °F 77% 30.11 in 10.0 mi ESE 5.8 mph - N/A   Overcast
3:15 PM 60.8 °F 57.2 °F 88% 30.10 in 5.0 mi ENE 6.9 mph - N/A   Light Drizzle
3:35 PM 60.8 °F 55.4 °F 82% 30.10 in 10.0 mi NE 4.6 mph - N/A   Overcast
3:55 PM 60.8 °F 57.2 °F 88% 30.10 in 10.0 mi East 3.5 mph - N/A   Overcast
4:15 PM 60.8 °F 57.2 °F 88% 30.10 in 10.0 mi East 5.8 mph - N/A   Overcast
4:35 PM 60.8 °F 55.4 °F 82% 30.11 in 10.0 mi East 4.6 mph - N/A   Overcast
4:55 PM 60.8 °F 55.4 °F 82% 30.11 in 10.0 mi East 6.9 mph - N/A   Overcast
5:15 PM 60.8 °F 55.4 °F 82% 30.11 in 10.0 mi East 5.8 mph - N/A   Overcast
5:35 PM 60.8 °F 55.4 °F 82% 30.11 in 10.0 mi East 6.9 mph - N/A   Mostly Cloudy
5:55 PM 59.0 °F 55.4 °F 88% 30.11 in 10.0 mi East 6.9 mph - N/A   Mostly Cloudy
6:15 PM 59.0 °F 55.4 °F 88% 30.11 in 10.0 mi East 5.8 mph - N/A   Overcast
6:35 PM 59.0 °F 53.6 °F 82% 30.12 in 10.0 mi East 5.8 mph - N/A   Overcast
6:55 PM 59.0 °F 53.6 °F 82% 30.12 in 10.0 mi East 6.9 mph - N/A   Overcast
7:15 PM 59.0 °F 53.6 °F 82% 30.11 in 10.0 mi East 10.4 mph - N/A   Overcast
7:35 PM 59.0 °F 51.8 °F 77% 30.12 in 10.0 mi East 8.1 mph - N/A   Overcast
7:55 PM 59.0 °F 50.0 °F 72% 30.11 in 10.0 mi East 10.4 mph - N/A   Overcast
8:15 PM 57.2 °F 50.0 °F 77% 30.11 in 10.0 mi East 9.2 mph 16.1 mph N/A   Overcast
8:35 PM 57.2 °F 50.0 °F 77% 30.12 in 10.0 mi East 8.1 mph - N/A   Overcast
8:55 PM 55.4 °F 50.0 °F 82% 30.12 in 10.0 mi ENE 8.1 mph - N/A   Overcast
9:15 PM 55.4 °F 50.0 °F 82% 30.12 in 10.0 mi East 6.9 mph - N/A   Overcast
9:35 PM 55.4 °F 50.0 °F 82% 30.13 in 10.0 mi East 5.8 mph - N/A   Overcast
9:55 PM 55.4 °F 50.0 °F 82% 30.13 in 10.0 mi ENE 5.8 mph - N/A   Overcast
10:15 PM 55.4 °F 50.0 °F 82% 30.13 in 10.0 mi NE 4.6 mph - N/A   Overcast
10:35 PM 55.4 °F 48.2 °F 77% 30.13 in 10.0 mi ENE 5.8 mph - N/A   Overcast
10:55 PM 55.4 °F 48.2 °F 77% 30.13 in 10.0 mi ENE 5.8 mph - N/A   Overcast
11:15 PM 53.6 °F 48.2 °F 82% 30.13 in 10.0 mi East 8.1 mph - N/A   Overcast
11:35 PM 53.6 °F 46.4 °F 77% 30.14 in 10.0 mi ENE 4.6 mph - N/A   Overcast
11:55 PM 53.6 °F 46.4 °F 77% 30.13 in 10.0 mi East 8.1 mph - N/A   Overcast